createdAt,value
2019-02-12T00:09:00.429Z,3.40
2019-02-12T00:19:01.345Z,4.00
2019-02-12T00:29:01.988Z,4.03
2019-02-12T00:39:04.570Z,3.93
2019-02-12T00:49:05.299Z,4.07
2019-02-12T00:59:06.156Z,4.77
2019-02-12T01:09:07.168Z,3.70
2019-02-12T01:19:07.917Z,3.63
2019-02-12T01:29:08.696Z,4.40
2019-02-12T01:39:10.414Z,3.50
2019-02-12T08:21:13.146Z,4.53
2019-02-12T08:31:33.272Z,4.87
2019-02-12T08:41:55.391Z,5.07
2019-02-12T08:52:15.832Z,3.13
2019-02-12T09:02:44.852Z,3.73
2019-02-12T09:13:01.283Z,3.83
2019-02-12T09:23:22.656Z,4.00
2019-02-12T09:33:48.651Z,2.80
2019-02-12T09:44:15.162Z,3.50
2019-02-12T09:54:42.605Z,2.90
2019-02-12T10:04:56.625Z,2.70
2019-02-12T10:15:15.885Z,3.63
2019-02-12T10:25:19.708Z,3.20
2019-02-12T10:35:20.767Z,2.60
2019-02-12T10:45:21.467Z,2.50
2019-02-12T10:55:22.757Z,2.30
2019-02-12T11:05:26.863Z,1.87
2019-02-12T11:15:27.842Z,1.83
2019-02-12T11:25:28.764Z,1.60
2019-02-12T11:35:29.675Z,2.70
2019-02-12T11:45:30.665Z,3.07
2019-02-12T11:55:31.341Z,1.80
2019-02-12T12:05:32.055Z,3.27
2019-02-12T12:15:32.746Z,1.83
2019-02-12T12:25:33.449Z,4.37
2019-02-12T12:35:34.384Z,1.90
2019-02-12T12:45:35.434Z,2.37
2019-02-12T12:55:36.421Z,2.37
2019-02-12T13:05:37.238Z,1.83
2019-02-12T13:15:38.100Z,1.13
2019-02-12T13:25:39.031Z,1.07
2019-02-12T13:35:39.952Z,1.00
2019-02-12T13:45:46.553Z,1.00
2019-02-12T13:55:46.057Z,1.60
2019-02-12T14:05:46.783Z,1.33
2019-02-12T14:15:47.506Z,1.60
2019-02-12T14:25:48.203Z,1.30
2019-02-12T14:35:48.963Z,1.57
2019-02-12T14:45:49.973Z,1.70
2019-02-12T14:55:51.017Z,1.00
2019-02-12T15:05:51.945Z,1.10
2019-02-12T15:15:53.145Z,1.20
2019-02-12T15:25:54.010Z,1.83
2019-02-12T15:35:54.815Z,1.30
2019-02-12T15:45:55.735Z,1.77
2019-02-12T15:55:56.749Z,1.77
2019-02-12T16:05:58.785Z,1.33
2019-02-12T16:15:59.471Z,1.20
2019-02-12T16:26:00.153Z,1.80
2019-02-12T16:36:10.059Z,2.50
2019-02-12T16:46:18.702Z,2.27
2019-02-12T17:06:37.358Z,2.27
2019-02-12T17:16:38.262Z,3.00
2019-02-12T17:26:44.814Z,3.10
2019-02-12T17:36:45.574Z,3.23
2019-02-12T17:46:49.485Z,2.47
2019-02-12T17:56:52.256Z,3.70
2019-02-12T18:06:55.052Z,2.87
2019-02-12T18:16:56.768Z,2.83
2019-02-12T18:26:57.526Z,3.30
2019-02-12T18:37:00.061Z,3.30
2019-02-12T18:47:01.016Z,2.73
2019-02-12T18:57:01.862Z,2.60
2019-02-12T19:07:02.804Z,2.73
2019-02-12T19:17:03.485Z,2.63
2019-02-12T19:27:05.339Z,2.43
2019-02-12T19:37:06.046Z,2.80
2019-02-12T19:47:07.832Z,2.23
2019-02-12T19:57:08.609Z,2.30
2019-02-12T20:07:09.398Z,2.70
2019-02-12T20:17:10.176Z,2.67
2019-02-12T20:27:10.857Z,2.20
2019-02-12T20:37:11.538Z,2.40
2019-02-12T20:47:12.289Z,2.00
2019-02-12T20:57:14.908Z,1.87
2019-02-12T21:07:15.902Z,1.93
2019-02-12T21:17:16.587Z,2.03
